sensor_id;sensor_type;location;lat;lon;timestamp;P1;durP1;ratioP1;P2;durP2;ratioP2
37517;SDS011;23366;52.498;13.446;2022-07-22T00:00:13;7.00;;;4.38;;
37517;SDS011;23366;52.498;13.446;2022-07-22T00:02:39;6.80;;;3.80;;
37517;SDS011;23366;52.498;13.446;2022-07-22T00:05:05;8.52;;;6.22;;
37517;SDS011;23366;52.498;13.446;2022-07-22T00:07:32;3.25;;;2.95;;
37517;SDS011;23366;52.498;13.446;2022-07-22T00:09:58;4.68;;;3.92;;
37517;SDS011;23366;52.498;13.446;2022-07-22T00:12:23;6.80;;;3.58;;
37517;SDS011;23366;52.498;13.446;2022-07-22T00:14:49;4.60;;;3.35;;
37517;SDS011;23366;52.498;13.446;2022-07-22T00:17:15;5.40;;;3.55;;
37517;SDS011;23366;52.498;13.446;2022-07-22T00:19:41;5.38;;;3.95;;
37517;SDS011;23366;52.498;13.446;2022-07-22T00:22:09;4.93;;;3.70;;
37517;SDS011;23366;52.498;13.446;2022-07-22T00:24:35;6.65;;;3.20;;
37517;SDS011;23366;52.498;13.446;2022-07-22T00:27:00;4.68;;;3.25;;
37517;SDS011;23366;52.498;13.446;2022-07-22T00:29:26;5.13;;;2.80;;
37517;SDS011;23366;52.498;13.446;2022-07-22T00:31:52;5.55;;;3.22;;
37517;SDS011;23366;52.498;13.446;2022-07-22T00:34:17;5.90;;;2.90;;
37517;SDS011;23366;52.498;13.446;2022-07-22T00:36:43;4.65;;;3.60;;
37517;SDS011;23366;52.498;13.446;2022-07-22T00:39:08;7.45;;;3.75;;
37517;SDS011;23366;52.498;13.446;2022-07-22T00:41:34;5.35;;;3.50;;
37517;SDS011;23366;52.498;13.446;2022-07-22T00:44:01;3.85;;;3.15;;
37517;SDS011;23366;52.498;13.446;2022-07-22T00:46:34;6.57;;;4.18;;
37517;SDS011;23366;52.498;13.446;2022-07-22T00:49:01;4.22;;;3.13;;
37517;SDS011;23366;52.498;13.446;2022-07-22T00:51:28;3.85;;;3.13;;
37517;SDS011;23366;52.498;13.446;2022-07-22T00:53:55;4.88;;;3.15;;
37517;SDS011;23366;52.498;13.446;2022-07-22T00:56:22;6.07;;;3.63;;
37517;SDS011;23366;52.498;13.446;2022-07-22T00:58:49;5.43;;;3.15;;
37517;SDS011;23366;52.498;13.446;2022-07-22T01:01:17;4.22;;;3.15;;
37517;SDS011;23366;52.498;13.446;2022-07-22T01:03:43;4.15;;;3.58;;
37517;SDS011;23366;52.498;13.446;2022-07-22T01:06:09;5.22;;;4.40;;
37517;SDS011;23366;52.498;13.446;2022-07-22T01:08:35;4.15;;;2.83;;
37517;SDS011;23366;52.498;13.446;2022-07-22T01:11:14;10.02;;;3.60;;
37517;SDS011;23366;52.498;13.446;2022-07-22T01:13:42;3.10;;;2.80;;
37517;SDS011;23366;52.498;13.446;2022-07-22T01:16:09;4.60;;;2.83;;
37517;SDS011;23366;52.498;13.446;2022-07-22T01:18:36;3.15;;;2.65;;
37517;SDS011;23366;52.498;13.446;2022-07-22T01:21:04;3.80;;;3.20;;
37517;SDS011;23366;52.498;13.446;2022-07-22T01:23:31;6.18;;;2.95;;
37517;SDS011;23366;52.498;13.446;2022-07-22T01:25:57;4.25;;;2.85;;
37517;SDS011;23366;52.498;13.446;2022-07-22T01:28:23;6.45;;;3.00;;
37517;SDS011;23366;52.498;13.446;2022-07-22T01:30:49;4.22;;;2.92;;
37517;SDS011;23366;52.498;13.446;2022-07-22T01:33:22;3.95;;;2.90;;
37517;SDS011;23366;52.498;13.446;2022-07-22T01:35:48;4.18;;;2.45;;
37517;SDS011;23366;52.498;13.446;2022-07-22T01:38:15;3.38;;;2.67;;
37517;SDS011;23366;52.498;13.446;2022-07-22T01:40:41;3.53;;;2.92;;
37517;SDS011;23366;52.498;13.446;2022-07-22T01:43:10;7.35;;;3.22;;
37517;SDS011;23366;52.498;13.446;2022-07-22T01:45:36;3.42;;;2.65;;
37517;SDS011;23366;52.498;13.446;2022-07-22T01:48:02;3.53;;;3.00;;
37517;SDS011;23366;52.498;13.446;2022-07-22T01:50:28;5.85;;;3.00;;
37517;SDS011;23366;52.498;13.446;2022-07-22T01:52:55;5.55;;;2.85;;
37517;SDS011;23366;52.498;13.446;2022-07-22T01:55:21;3.95;;;2.47;;
37517;SDS011;23366;52.498;13.446;2022-07-22T01:57:47;3.42;;;3.10;;
37517;SDS011;23366;52.498;13.446;2022-07-22T02:00:12;2.70;;;2.33;;
37517;SDS011;23366;52.498;13.446;2022-07-22T02:02:38;3.25;;;2.35;;
37517;SDS011;23366;52.498;13.446;2022-07-22T02:05:05;2.60;;;2.20;;
37517;SDS011;23366;52.498;13.446;2022-07-22T02:07:31;5.35;;;2.40;;
37517;SDS011;23366;52.498;13.446;2022-07-22T02:09:57;2.90;;;2.35;;
37517;SDS011;23366;52.498;13.446;2022-07-22T02:12:23;3.55;;;2.47;;
37517;SDS011;23366;52.498;13.446;2022-07-22T02:14:49;4.20;;;2.92;;
37517;SDS011;23366;52.498;13.446;2022-07-22T02:17:14;5.32;;;2.95;;
37517;SDS011;23366;52.498;13.446;2022-07-22T02:19:41;2.42;;;2.22;;
37517;SDS011;23366;52.498;13.446;2022-07-22T02:22:06;4.47;;;3.47;;
37517;SDS011;23366;52.498;13.446;2022-07-22T02:24:32;3.38;;;2.75;;
37517;SDS011;23366;52.498;13.446;2022-07-22T02:26:58;3.83;;;2.67;;
37517;SDS011;23366;52.498;13.446;2022-07-22T02:29:26;5.63;;;2.60;;
37517;SDS011;23366;52.498;13.446;2022-07-22T02:31:52;5.95;;;3.10;;
37517;SDS011;23366;52.498;13.446;2022-07-22T02:34:18;5.07;;;3.47;;
37517;SDS011;23366;52.498;13.446;2022-07-22T02:36:43;4.05;;;2.55;;
37517;SDS011;23366;52.498;13.446;2022-07-22T02:39:09;4.22;;;2.72;;
37517;SDS011;23366;52.498;13.446;2022-07-22T02:41:35;4.00;;;2.72;;
37517;SDS011;23366;52.498;13.446;2022-07-22T02:44:02;3.70;;;2.88;;
37517;SDS011;23366;52.498;13.446;2022-07-22T02:46:29;6.13;;;3.53;;
37517;SDS011;23366;52.498;13.446;2022-07-22T02:48:55;4.60;;;3.33;;
37517;SDS011;23366;52.498;13.446;2022-07-22T02:51:21;3.72;;;3.08;;
37517;SDS011;23366;52.498;13.446;2022-07-22T02:53:47;4.80;;;3.47;;
37517;SDS011;23366;52.498;13.446;2022-07-22T02:56:13;5.07;;;3.15;;
37517;SDS011;23366;52.498;13.446;2022-07-22T02:58:39;5.35;;;3.70;;
37517;SDS011;23366;52.498;13.446;2022-07-22T03:01:06;5.75;;;3.40;;
37517;SDS011;23366;52.498;13.446;2022-07-22T03:03:32;5.53;;;3.40;;
37517;SDS011;23366;52.498;13.446;2022-07-22T03:05:58;4.72;;;3.70;;
37517;SDS011;23366;52.498;13.446;2022-07-22T03:08:24;5.63;;;4.32;;
37517;SDS011;23366;52.498;13.446;2022-07-22T03:10:50;5.03;;;3.45;;
37517;SDS011;23366;52.498;13.446;2022-07-22T03:13:16;4.50;;;3.40;;
37517;SDS011;23366;52.498;13.446;2022-07-22T03:15:42;6.30;;;4.05;;
37517;SDS011;23366;52.498;13.446;2022-07-22T03:18:08;5.85;;;3.60;;
37517;SDS011;23366;52.498;13.446;2022-07-22T03:20:34;6.28;;;4.10;;
37517;SDS011;23366;52.498;13.446;2022-07-22T03:23:00;5.72;;;3.97;;
37517;SDS011;23366;52.498;13.446;2022-07-22T03:25:26;4.57;;;3.97;;
37517;SDS011;23366;52.498;13.446;2022-07-22T03:27:51;6.05;;;3.63;;
37517;SDS011;23366;52.498;13.446;2022-07-22T03:30:17;8.55;;;4.45;;
37517;SDS011;23366;52.498;13.446;2022-07-22T03:32:43;5.05;;;4.13;;
37517;SDS011;23366;52.498;13.446;2022-07-22T03:35:10;7.53;;;4.13;;
37517;SDS011;23366;52.498;13.446;2022-07-22T03:37:36;5.30;;;4.35;;
37517;SDS011;23366;52.498;13.446;2022-07-22T03:40:02;9.93;;;4.28;;
37517;SDS011;23366;52.498;13.446;2022-07-22T03:42:29;10.68;;;4.32;;
37517;SDS011;23366;52.498;13.446;2022-07-22T03:44:54;10.18;;;5.68;;
37517;SDS011;23366;52.498;13.446;2022-07-22T03:47:21;6.38;;;4.40;;
37517;SDS011;23366;52.498;13.446;2022-07-22T03:49:49;5.05;;;4.22;;
37517;SDS011;23366;52.498;13.446;2022-07-22T03:52:15;6.35;;;4.53;;
37517;SDS011;23366;52.498;13.446;2022-07-22T03:54:41;7.80;;;4.75;;
37517;SDS011;23366;52.498;13.446;2022-07-22T03:57:07;4.93;;;4.05;;
37517;SDS011;23366;52.498;13.446;2022-07-22T03:59:34;5.65;;;4.68;;
37517;SDS011;23366;52.498;13.446;2022-07-22T04:02:00;6.00;;;4.22;;
37517;SDS011;23366;52.498;13.446;2022-07-22T04:04:26;4.82;;;3.67;;
37517;SDS011;23366;52.498;13.446;2022-07-22T04:06:51;7.85;;;4.82;;
37517;SDS011;23366;52.498;13.446;2022-07-22T04:09:17;6.18;;;4.15;;
37517;SDS011;23366;52.498;13.446;2022-07-22T04:11:43;6.88;;;4.63;;
37517;SDS011;23366;52.498;13.446;2022-07-22T04:14:09;5.90;;;4.65;;
37517;SDS011;23366;52.498;13.446;2022-07-22T04:16:35;6.45;;;4.53;;
37517;SDS011;23366;52.498;13.446;2022-07-22T04:19:02;7.78;;;5.53;;
37517;SDS011;23366;52.498;13.446;2022-07-22T04:21:28;7.68;;;4.70;;
37517;SDS011;23366;52.498;13.446;2022-07-22T04:23:54;8.15;;;4.85;;
37517;SDS011;23366;52.498;13.446;2022-07-22T04:26:21;7.57;;;5.13;;
37517;SDS011;23366;52.498;13.446;2022-07-22T04:28:47;7.95;;;4.90;;
37517;SDS011;23366;52.498;13.446;2022-07-22T04:31:13;7.13;;;4.72;;
37517;SDS011;23366;52.498;13.446;2022-07-22T04:33:38;7.35;;;4.57;;
37517;SDS011;23366;52.498;13.446;2022-07-22T04:36:04;6.50;;;4.75;;
37517;SDS011;23366;52.498;13.446;2022-07-22T04:38:30;9.88;;;5.68;;
37517;SDS011;23366;52.498;13.446;2022-07-22T04:40:56;7.40;;;5.25;;
37517;SDS011;23366;52.498;13.446;2022-07-22T04:43:24;6.35;;;5.40;;
37517;SDS011;23366;52.498;13.446;2022-07-22T04:45:50;7.40;;;5.47;;
37517;SDS011;23366;52.498;13.446;2022-07-22T04:48:16;9.15;;;5.60;;
37517;SDS011;23366;52.498;13.446;2022-07-22T04:50:42;10.02;;;6.00;;
37517;SDS011;23366;52.498;13.446;2022-07-22T04:53:07;7.75;;;5.63;;
37517;SDS011;23366;52.498;13.446;2022-07-22T04:55:33;10.88;;;5.90;;
37517;SDS011;23366;52.498;13.446;2022-07-22T04:57:59;6.70;;;5.22;;
37517;SDS011;23366;52.498;13.446;2022-07-22T05:00:25;9.68;;;6.30;;
37517;SDS011;23366;52.498;13.446;2022-07-22T05:02:50;8.50;;;5.88;;
37517;SDS011;23366;52.498;13.446;2022-07-22T05:05:16;6.50;;;5.20;;
37517;SDS011;23366;52.498;13.446;2022-07-22T05:07:42;8.70;;;5.50;;
37517;SDS011;23366;52.498;13.446;2022-07-22T05:10:08;6.93;;;5.05;;
37517;SDS011;23366;52.498;13.446;2022-07-22T05:12:34;7.55;;;5.88;;
37517;SDS011;23366;52.498;13.446;2022-07-22T05:15:00;11.05;;;6.97;;
37517;SDS011;23366;52.498;13.446;2022-07-22T05:17:26;20.05;;;6.90;;
37517;SDS011;23366;52.498;13.446;2022-07-22T05:19:52;24.08;;;6.70;;
37517;SDS011;23366;52.498;13.446;2022-07-22T05:22:18;14.15;;;6.70;;
37517;SDS011;23366;52.498;13.446;2022-07-22T05:24:43;15.07;;;6.43;;
37517;SDS011;23366;52.498;13.446;2022-07-22T05:27:09;14.02;;;5.95;;
37517;SDS011;23366;52.498;13.446;2022-07-22T05:29:37;12.57;;;6.45;;
37517;SDS011;23366;52.498;13.446;2022-07-22T05:32:03;10.20;;;6.28;;
37517;SDS011;23366;52.498;13.446;2022-07-22T05:34:29;10.63;;;5.78;;
37517;SDS011;23366;52.498;13.446;2022-07-22T05:36:54;10.93;;;5.70;;
37517;SDS011;23366;52.498;13.446;2022-07-22T05:39:20;9.40;;;5.45;;
37517;SDS011;23366;52.498;13.446;2022-07-22T05:41:46;8.98;;;6.03;;
37517;SDS011;23366;52.498;13.446;2022-07-22T05:44:13;13.38;;;5.47;;
37517;SDS011;23366;52.498;13.446;2022-07-22T05:46:39;8.93;;;5.18;;
37517;SDS011;23366;52.498;13.446;2022-07-22T05:49:05;6.38;;;4.90;;
37517;SDS011;23366;52.498;13.446;2022-07-22T05:51:31;8.07;;;5.60;;
37517;SDS011;23366;52.498;13.446;2022-07-22T05:53:57;7.38;;;6.43;;
37517;SDS011;23366;52.498;13.446;2022-07-22T05:56:23;6.43;;;4.50;;
37517;SDS011;23366;52.498;13.446;2022-07-22T05:58:49;10.70;;;5.47;;
37517;SDS011;23366;52.498;13.446;2022-07-22T06:01:15;6.07;;;5.32;;
37517;SDS011;23366;52.498;13.446;2022-07-22T06:03:40;8.23;;;4.47;;
37517;SDS011;23366;52.498;13.446;2022-07-22T06:06:06;6.50;;;4.72;;
37517;SDS011;23366;52.498;13.446;2022-07-22T06:08:34;7.25;;;5.05;;
37517;SDS011;23366;52.498;13.446;2022-07-22T06:11:00;6.10;;;5.05;;
37517;SDS011;23366;52.498;13.446;2022-07-22T06:13:26;7.05;;;4.90;;
37517;SDS011;23366;52.498;13.446;2022-07-22T06:15:53;6.25;;;4.57;;
37517;SDS011;23366;52.498;13.446;2022-07-22T06:18:19;7.95;;;4.78;;
37517;SDS011;23366;52.498;13.446;2022-07-22T06:20:44;6.30;;;4.68;;
37517;SDS011;23366;52.498;13.446;2022-07-22T06:23:10;8.05;;;4.93;;
37517;SDS011;23366;52.498;13.446;2022-07-22T06:25:36;7.35;;;4.95;;
37517;SDS011;23366;52.498;13.446;2022-07-22T06:28:02;7.95;;;5.03;;
37517;SDS011;23366;52.498;13.446;2022-07-22T06:30:29;6.15;;;4.50;;
37517;SDS011;23366;52.498;13.446;2022-07-22T06:32:55;5.55;;;4.57;;
37517;SDS011;23366;52.498;13.446;2022-07-22T06:35:23;5.97;;;4.53;;
37517;SDS011;23366;52.498;13.446;2022-07-22T06:37:52;5.32;;;4.57;;
37517;SDS011;23366;52.498;13.446;2022-07-22T06:40:18;7.50;;;4.50;;
37517;SDS011;23366;52.498;13.446;2022-07-22T06:42:44;6.93;;;3.92;;
37517;SDS011;23366;52.498;13.446;2022-07-22T06:45:10;4.47;;;3.90;;
37517;SDS011;23366;52.498;13.446;2022-07-22T06:47:36;7.53;;;4.75;;
37517;SDS011;23366;52.498;13.446;2022-07-22T06:50:02;7.28;;;4.53;;
37517;SDS011;23366;52.498;13.446;2022-07-22T06:52:29;7.18;;;4.38;;
37517;SDS011;23366;52.498;13.446;2022-07-22T06:54:54;5.78;;;4.28;;
37517;SDS011;23366;52.498;13.446;2022-07-22T06:57:20;4.57;;;4.15;;
37517;SDS011;23366;52.498;13.446;2022-07-22T06:59:46;5.53;;;3.67;;
37517;SDS011;23366;52.498;13.446;2022-07-22T07:02:11;8.23;;;5.00;;
37517;SDS011;23366;52.498;13.446;2022-07-22T07:04:37;5.50;;;3.78;;
37517;SDS011;23366;52.498;13.446;2022-07-22T07:07:03;5.65;;;3.83;;
37517;SDS011;23366;52.498;13.446;2022-07-22T07:09:28;4.38;;;3.80;;
37517;SDS011;23366;52.498;13.446;2022-07-22T07:11:54;3.92;;;3.13;;
37517;SDS011;23366;52.498;13.446;2022-07-22T07:14:20;5.38;;;3.50;;
37517;SDS011;23366;52.498;13.446;2022-07-22T07:16:45;4.90;;;3.80;;
37517;SDS011;23366;52.498;13.446;2022-07-22T07:19:11;4.82;;;3.42;;
37517;SDS011;23366;52.498;13.446;2022-07-22T07:21:38;3.42;;;2.88;;
37517;SDS011;23366;52.498;13.446;2022-07-22T07:24:03;4.63;;;4.07;;
37517;SDS011;23366;52.498;13.446;2022-07-22T07:26:29;4.63;;;3.67;;
37517;SDS011;23366;52.498;13.446;2022-07-22T07:28:55;3.88;;;3.10;;
37517;SDS011;23366;52.498;13.446;2022-07-22T07:31:21;4.20;;;2.80;;
37517;SDS011;23366;52.498;13.446;2022-07-22T07:33:46;4.13;;;2.58;;
37517;SDS011;23366;52.498;13.446;2022-07-22T07:36:12;3.90;;;2.33;;
37517;SDS011;23366;52.498;13.446;2022-07-22T07:38:39;3.42;;;2.42;;
37517;SDS011;23366;52.498;13.446;2022-07-22T07:41:05;2.72;;;2.15;;
37517;SDS011;23366;52.498;13.446;2022-07-22T07:43:31;2.25;;;1.92;;
37517;SDS011;23366;52.498;13.446;2022-07-22T07:45:56;1.83;;;1.65;;
37517;SDS011;23366;52.498;13.446;2022-07-22T07:48:25;2.92;;;1.98;;
37517;SDS011;23366;52.498;13.446;2022-07-22T07:50:50;4.55;;;1.52;;
37517;SDS011;23366;52.498;13.446;2022-07-22T07:53:16;2.50;;;1.85;;
37517;SDS011;23366;52.498;13.446;2022-07-22T07:55:42;3.33;;;1.88;;
37517;SDS011;23366;52.498;13.446;2022-07-22T07:58:08;2.35;;;1.73;;
37517;SDS011;23366;52.498;13.446;2022-07-22T08:00:34;2.15;;;1.80;;
37517;SDS011;23366;52.498;13.446;2022-07-22T08:03:01;4.18;;;2.03;;
37517;SDS011;23366;52.498;13.446;2022-07-22T08:05:30;2.03;;;1.55;;
37517;SDS011;23366;52.498;13.446;2022-07-22T08:07:57;2.45;;;1.45;;
37517;SDS011;23366;52.498;13.446;2022-07-22T08:10:23;1.83;;;1.60;;
37517;SDS011;23366;52.498;13.446;2022-07-22T08:12:48;2.13;;;1.70;;
37517;SDS011;23366;52.498;13.446;2022-07-22T08:15:15;3.85;;;1.50;;
37517;SDS011;23366;52.498;13.446;2022-07-22T08:17:40;1.92;;;1.50;;
37517;SDS011;23366;52.498;13.446;2022-07-22T08:20:07;2.88;;;1.20;;
37517;SDS011;23366;52.498;13.446;2022-07-22T08:22:33;1.80;;;1.35;;
37517;SDS011;23366;52.498;13.446;2022-07-22T08:24:59;3.10;;;1.70;;
37517;SDS011;23366;52.498;13.446;2022-07-22T08:27:25;7.38;;;1.52;;
37517;SDS011;23366;52.498;13.446;2022-07-22T08:29:51;1.75;;;1.50;;
37517;SDS011;23366;52.498;13.446;2022-07-22T08:32:16;2.10;;;1.65;;
37517;SDS011;23366;52.498;13.446;2022-07-22T08:34:42;4.07;;;2.10;;
37517;SDS011;23366;52.498;13.446;2022-07-22T08:37:08;2.10;;;1.65;;
37517;SDS011;23366;52.498;13.446;2022-07-22T08:39:33;2.78;;;1.65;;
37517;SDS011;23366;52.498;13.446;2022-07-22T08:41:59;3.50;;;2.17;;
37517;SDS011;23366;52.498;13.446;2022-07-22T08:44:28;3.80;;;2.40;;
37517;SDS011;23366;52.498;13.446;2022-07-22T08:46:58;5.05;;;2.30;;
37517;SDS011;23366;52.498;13.446;2022-07-22T08:49:25;4.40;;;2.20;;
37517;SDS011;23366;52.498;13.446;2022-07-22T08:51:51;3.05;;;2.30;;
37517;SDS011;23366;52.498;13.446;2022-07-22T08:54:17;4.07;;;2.53;;
37517;SDS011;23366;52.498;13.446;2022-07-22T08:56:49;6.70;;;2.90;;
37517;SDS011;23366;52.498;13.446;2022-07-22T08:59:16;2.63;;;1.77;;
37517;SDS011;23366;52.498;13.446;2022-07-22T09:04:52;8.90;;;2.42;;
37517;SDS011;23366;52.498;13.446;2022-07-22T09:07:23;3.17;;;2.70;;
37517;SDS011;23366;52.498;13.446;2022-07-22T09:09:52;3.37;;;2.43;;
37517;SDS011;23366;52.498;13.446;2022-07-22T09:12:18;7.72;;;2.38;;
37517;SDS011;23366;52.498;13.446;2022-07-22T09:14:48;2.85;;;1.70;;
37517;SDS011;23366;52.498;13.446;2022-07-22T09:17:22;2.85;;;2.25;;
37517;SDS011;23366;52.498;13.446;2022-07-22T09:19:53;4.63;;;2.55;;
37517;SDS011;23366;52.498;13.446;2022-07-22T09:22:32;3.53;;;2.58;;
37517;SDS011;23366;52.498;13.446;2022-07-22T09:27:56;3.53;;;2.35;;
37517;SDS011;23366;52.498;13.446;2022-07-22T09:30:31;2.67;;;2.22;;
37517;SDS011;23366;52.498;13.446;2022-07-22T09:32:58;2.67;;;1.80;;
37517;SDS011;23366;52.498;13.446;2022-07-22T09:35:24;3.38;;;2.78;;
37517;SDS011;23366;52.498;13.446;2022-07-22T09:37:54;3.40;;;2.35;;
37517;SDS011;23366;52.498;13.446;2022-07-22T09:40:26;3.45;;;2.65;;
37517;SDS011;23366;52.498;13.446;2022-07-22T09:42:55;3.83;;;2.25;;
37517;SDS011;23366;52.498;13.446;2022-07-22T09:45:22;4.03;;;2.00;;
37517;SDS011;23366;52.498;13.446;2022-07-22T09:47:50;3.03;;;2.60;;
37517;SDS011;23366;52.498;13.446;2022-07-22T09:50:17;5.38;;;2.50;;
37517;SDS011;23366;52.498;13.446;2022-07-22T09:52:51;1.98;;;1.75;;
37517;SDS011;23366;52.498;13.446;2022-07-22T09:55:19;2.90;;;2.10;;
37517;SDS011;23366;52.498;13.446;2022-07-22T09:57:46;2.38;;;1.50;;
37517;SDS011;23366;52.498;13.446;2022-07-22T10:00:14;1.50;;;1.40;;
37517;SDS011;23366;52.498;13.446;2022-07-22T10:05:13;1.63;;;1.48;;
37517;SDS011;23366;52.498;13.446;2022-07-22T10:07:43;4.82;;;3.10;;
37517;SDS011;23366;52.498;13.446;2022-07-22T10:10:11;6.03;;;2.80;;
37517;SDS011;23366;52.498;13.446;2022-07-22T10:12:38;3.45;;;2.10;;
37517;SDS011;23366;52.498;13.446;2022-07-22T10:15:05;8.10;;;2.58;;
37517;SDS011;23366;52.498;13.446;2022-07-22T10:17:33;3.65;;;2.13;;
37517;SDS011;23366;52.498;13.446;2022-07-22T10:20:02;4.80;;;1.73;;
37517;SDS011;23366;52.498;13.446;2022-07-22T10:25:08;2.65;;;1.63;;
37517;SDS011;23366;52.498;13.446;2022-07-22T10:30:31;2.45;;;1.73;;
37517;SDS011;23366;52.498;13.446;2022-07-22T10:33:05;3.88;;;1.80;;
37517;SDS011;23366;52.498;13.446;2022-07-22T10:35:36;2.50;;;1.23;;
37517;SDS011;23366;52.498;13.446;2022-07-22T10:38:16;2.28;;;1.48;;
37517;SDS011;23366;52.498;13.446;2022-07-22T10:40:51;1.30;;;1.08;;
37517;SDS011;23366;52.498;13.446;2022-07-22T10:43:21;3.13;;;1.52;;
37517;SDS011;23366;52.498;13.446;2022-07-22T10:46:01;2.30;;;1.55;;
37517;SDS011;23366;52.498;13.446;2022-07-22T10:51:20;2.72;;;1.33;;
37517;SDS011;23366;52.498;13.446;2022-07-22T10:56:22;2.45;;;1.45;;
37517;SDS011;23366;52.498;13.446;2022-07-22T11:01:27;4.45;;;1.42;;
37517;SDS011;23366;52.498;13.446;2022-07-22T11:03:55;1.83;;;1.40;;
37517;SDS011;23366;52.498;13.446;2022-07-22T11:06:26;3.00;;;1.48;;
37517;SDS011;23366;52.498;13.446;2022-07-22T11:08:56;1.88;;;1.55;;
37517;SDS011;23366;52.498;13.446;2022-07-22T11:11:33;1.58;;;1.13;;
37517;SDS011;23366;52.498;13.446;2022-07-22T11:14:00;1.95;;;1.10;;
37517;SDS011;23366;52.498;13.446;2022-07-22T11:16:26;1.50;;;1.30;;
37517;SDS011;23366;52.498;13.446;2022-07-22T11:19:02;1.70;;;1.15;;
37517;SDS011;23366;52.498;13.446;2022-07-22T11:21:29;1.23;;;1.10;;
37517;SDS011;23366;52.498;13.446;2022-07-22T11:23:57;1.80;;;1.20;;
37517;SDS011;23366;52.498;13.446;2022-07-22T11:26:25;8.90;;;1.73;;
37517;SDS011;23366;52.498;13.446;2022-07-22T11:29:03;1.50;;;1.30;;
37517;SDS011;23366;52.498;13.446;2022-07-22T11:31:29;1.85;;;1.15;;
37517;SDS011;23366;52.498;13.446;2022-07-22T11:34:05;2.05;;;1.48;;
37517;SDS011;23366;52.498;13.446;2022-07-22T11:36:33;2.58;;;1.77;;
37517;SDS011;23366;52.498;13.446;2022-07-22T11:39:00;2.85;;;1.73;;
37517;SDS011;23366;52.498;13.446;2022-07-22T11:41:28;2.88;;;1.45;;
37517;SDS011;23366;52.498;13.446;2022-07-22T11:43:54;2.03;;;1.63;;
37517;SDS011;23366;52.498;13.446;2022-07-22T11:46:20;4.32;;;2.33;;
37517;SDS011;23366;52.498;13.446;2022-07-22T11:48:45;2.35;;;1.90;;
37517;SDS011;23366;52.498;13.446;2022-07-22T11:51:11;2.33;;;1.60;;
37517;SDS011;23366;52.498;13.446;2022-07-22T11:53:39;2.63;;;2.03;;
37517;SDS011;23366;52.498;13.446;2022-07-22T11:56:06;2.00;;;1.45;;
37517;SDS011;23366;52.498;13.446;2022-07-22T11:58:40;1.95;;;1.33;;
37517;SDS011;23366;52.498;13.446;2022-07-22T12:01:15;2.58;;;1.85;;
37517;SDS011;23366;52.498;13.446;2022-07-22T12:03:49;6.05;;;1.85;;
37517;SDS011;23366;52.498;13.446;2022-07-22T12:06:17;1.45;;;1.35;;
37517;SDS011;23366;52.498;13.446;2022-07-22T12:08:48;3.20;;;1.52;;
37517;SDS011;23366;52.498;13.446;2022-07-22T12:11:41;3.33;;;1.95;;
37517;SDS011;23366;52.498;13.446;2022-07-22T12:14:10;1.55;;;1.42;;
37517;SDS011;23366;52.498;13.446;2022-07-22T12:19:08;1.90;;;1.55;;
37517;SDS011;23366;52.498;13.446;2022-07-22T12:21:49;3.20;;;1.52;;
37517;SDS011;23366;52.498;13.446;2022-07-22T12:24:27;1.58;;;1.40;;
37517;SDS011;23366;52.498;13.446;2022-07-22T12:26:54;2.17;;;1.27;;
37517;SDS011;23366;52.498;13.446;2022-07-22T12:32:03;2.88;;;2.10;;
37517;SDS011;23366;52.498;13.446;2022-07-22T12:37:21;3.63;;;2.10;;
37517;SDS011;23366;52.498;13.446;2022-07-22T12:39:52;3.85;;;1.83;;
37517;SDS011;23366;52.498;13.446;2022-07-22T12:42:18;2.03;;;1.60;;
37517;SDS011;23366;52.498;13.446;2022-07-22T12:52:49;6.45;;;2.33;;
37517;SDS011;23366;52.498;13.446;2022-07-22T12:55:16;1.60;;;1.42;;
37517;SDS011;23366;52.498;13.446;2022-07-22T12:57:42;1.13;;;1.02;;
37517;SDS011;23366;52.498;13.446;2022-07-22T13:00:08;1.98;;;1.38;;
37517;SDS011;23366;52.498;13.446;2022-07-22T13:02:35;3.03;;;1.30;;
37517;SDS011;23366;52.498;13.446;2022-07-22T13:05:01;1.65;;;1.25;;
37517;SDS011;23366;52.498;13.446;2022-07-22T13:07:26;1.48;;;1.30;;
37517;SDS011;23366;52.498;13.446;2022-07-22T13:09:52;1.90;;;1.05;;
37517;SDS011;23366;52.498;13.446;2022-07-22T13:12:18;1.88;;;1.20;;
37517;SDS011;23366;52.498;13.446;2022-07-22T13:14:43;3.50;;;1.55;;
37517;SDS011;23366;52.498;13.446;2022-07-22T13:17:09;1.65;;;1.23;;
37517;SDS011;23366;52.498;13.446;2022-07-22T13:19:36;1.17;;;0.88;;
37517;SDS011;23366;52.498;13.446;2022-07-22T13:22:01;2.53;;;1.48;;
37517;SDS011;23366;52.498;13.446;2022-07-22T13:24:27;3.90;;;1.10;;
37517;SDS011;23366;52.498;13.446;2022-07-22T13:26:53;1.65;;;1.10;;
37517;SDS011;23366;52.498;13.446;2022-07-22T13:29:18;1.13;;;1.00;;
37517;SDS011;23366;52.498;13.446;2022-07-22T13:31:44;3.38;;;1.13;;
37517;SDS011;23366;52.498;13.446;2022-07-22T13:34:09;1.42;;;1.05;;
37517;SDS011;23366;52.498;13.446;2022-07-22T13:36:35;1.67;;;1.38;;
37517;SDS011;23366;52.498;13.446;2022-07-22T13:39:01;1.42;;;1.08;;
37517;SDS011;23366;52.498;13.446;2022-07-22T13:41:32;2.28;;;1.67;;
37517;SDS011;23366;52.498;13.446;2022-07-22T13:43:57;2.30;;;1.63;;
37517;SDS011;23366;52.498;13.446;2022-07-22T13:46:23;2.55;;;1.45;;
37517;SDS011;23366;52.498;13.446;2022-07-22T13:48:49;1.55;;;1.20;;
37517;SDS011;23366;52.498;13.446;2022-07-22T13:51:14;2.80;;;1.50;;
37517;SDS011;23366;52.498;13.446;2022-07-22T13:53:40;2.95;;;1.50;;
37517;SDS011;23366;52.498;13.446;2022-07-22T13:56:07;2.08;;;1.52;;
37517;SDS011;23366;52.498;13.446;2022-07-22T13:58:34;1.63;;;1.52;;
37517;SDS011;23366;52.498;13.446;2022-07-22T14:01:00;2.60;;;1.80;;
37517;SDS011;23366;52.498;13.446;2022-07-22T14:03:26;2.70;;;1.38;;
37517;SDS011;23366;52.498;13.446;2022-07-22T14:05:52;2.00;;;1.60;;
37517;SDS011;23366;52.498;13.446;2022-07-22T14:08:17;2.00;;;1.45;;
37517;SDS011;23366;52.498;13.446;2022-07-22T14:10:43;1.98;;;1.52;;
37517;SDS011;23366;52.498;13.446;2022-07-22T14:13:09;2.45;;;1.33;;
37517;SDS011;23366;52.498;13.446;2022-07-22T14:15:34;1.30;;;1.17;;
37517;SDS011;23366;52.498;13.446;2022-07-22T14:18:00;2.28;;;1.17;;
37517;SDS011;23366;52.498;13.446;2022-07-22T14:20:26;1.10;;;1.00;;
37517;SDS011;23366;52.498;13.446;2022-07-22T14:22:54;2.17;;;1.00;;
37517;SDS011;23366;52.498;13.446;2022-07-22T14:25:20;1.85;;;1.23;;
37517;SDS011;23366;52.498;13.446;2022-07-22T14:27:46;0.95;;;0.80;;
37517;SDS011;23366;52.498;13.446;2022-07-22T14:30:11;0.80;;;0.73;;
37517;SDS011;23366;52.498;13.446;2022-07-22T14:32:37;1.52;;;1.10;;
37517;SDS011;23366;52.498;13.446;2022-07-22T14:35:03;1.08;;;0.75;;
37517;SDS011;23366;52.498;13.446;2022-07-22T14:37:31;0.98;;;0.90;;
37517;SDS011;23366;52.498;13.446;2022-07-22T14:39:57;2.92;;;1.33;;
37517;SDS011;23366;52.498;13.446;2022-07-22T14:42:27;1.48;;;1.15;;
37517;SDS011;23366;52.498;13.446;2022-07-22T14:44:54;2.30;;;1.50;;
37517;SDS011;23366;52.498;13.446;2022-07-22T14:47:20;1.63;;;1.23;;
37517;SDS011;23366;52.498;13.446;2022-07-22T14:49:45;1.90;;;1.40;;
37517;SDS011;23366;52.498;13.446;2022-07-22T14:52:11;3.65;;;1.80;;
37517;SDS011;23366;52.498;13.446;2022-07-22T14:54:36;3.45;;;1.45;;
37517;SDS011;23366;52.498;13.446;2022-07-22T14:57:02;3.10;;;1.02;;
37517;SDS011;23366;52.498;13.446;2022-07-22T14:59:28;2.30;;;1.17;;
37517;SDS011;23366;52.498;13.446;2022-07-22T15:01:54;1.40;;;0.88;;
37517;SDS011;23366;52.498;13.446;2022-07-22T15:04:21;3.75;;;1.33;;
37517;SDS011;23366;52.498;13.446;2022-07-22T15:06:47;1.95;;;1.75;;
37517;SDS011;23366;52.498;13.446;2022-07-22T15:09:12;2.13;;;1.40;;